createdAt,value
2023-03-21T00:04:24.482Z,97880.44
2023-03-21T00:09:27.183Z,97878.97
2023-03-21T00:14:30.809Z,97878.63
2023-03-21T00:19:32.870Z,97875.75
2023-03-21T00:24:35.919Z,97868.25
2023-03-21T00:29:37.828Z,97868.47
2023-03-21T00:34:48.534Z,97866.41
2023-03-21T00:39:56.580Z,97868.66
2023-03-21T00:44:58.300Z,97864.13
2023-03-21T00:49:59.909Z,97863.25
2023-03-21T00:55:01.556Z,97866.31
2023-03-21T01:00:06.490Z,97857.81
2023-03-21T01:05:11.456Z,97858.97
2023-03-21T01:10:13.134Z,97855.38
2023-03-21T01:15:14.785Z,97853.91
2023-03-21T01:20:16.782Z,97851.31
2023-03-21T01:25:22.603Z,97849.84
2023-03-21T01:30:28.684Z,97853.00
2023-03-21T01:35:41.023Z,97855.25
2023-03-21T01:40:51.236Z,97847.88
2023-03-21T01:46:30.220Z,97847.88
2023-03-21T01:51:49.339Z,97853.41
2023-03-21T01:56:57.715Z,97846.63
2023-03-21T02:02:07.143Z,97848.75
2023-03-21T02:07:24.266Z,97841.56
2023-03-21T02:12:28.943Z,97842.03
2023-03-21T02:17:48.870Z,97834.59
2023-03-21T02:23:32.037Z,97832.41
2023-03-21T02:28:56.415Z,97830.41
2023-03-21T02:34:17.620Z,97820.03
2023-03-21T02:39:36.117Z,97828.72
2023-03-21T02:44:46.835Z,97822.59
2023-03-21T02:49:59.769Z,97821.97
2023-03-21T02:55:04.882Z,97817.75
2023-03-21T03:00:20.819Z,97818.69
2023-03-21T03:05:25.335Z,97820.66
2023-03-21T03:10:42.303Z,97816.25
2023-03-21T03:16:15.479Z,97822.06
2023-03-21T03:21:40.384Z,97826.53
2023-03-21T03:26:48.026Z,97828.88
2023-03-21T03:32:01.555Z,97821.75
2023-03-21T03:37:10.654Z,97826.53
2023-03-21T03:42:36.239Z,97833.63
2023-03-21T03:47:57.431Z,97837.44
2023-03-21T03:53:32.204Z,97833.88
2023-03-21T03:58:44.916Z,97832.03
2023-03-21T04:03:54.626Z,97833.28
2023-03-21T04:09:03.511Z,97830.22
2023-03-21T04:14:07.257Z,97838.41
2023-03-21T04:19:09.370Z,97834.19
2023-03-21T04:24:13.835Z,97848.88
2023-03-21T04:29:17.435Z,97842.38
2023-03-21T04:34:40.419Z,97843.75
2023-03-21T04:39:42.942Z,97839.03
2023-03-21T04:44:46.594Z,97840.50
2023-03-21T04:49:48.265Z,97838.66
2023-03-21T04:54:49.930Z,97831.72
2023-03-21T04:59:52.971Z,97820.72
2023-03-21T05:04:54.580Z,97820.06
2023-03-21T05:09:56.241Z,97817.63
2023-03-21T05:14:57.849Z,97813.66
2023-03-21T05:19:59.620Z,97814.97
2023-03-21T05:25:02.342Z,97807.81
2023-03-21T05:30:20.691Z,97810.25
2023-03-21T05:35:26.899Z,97804.88
2023-03-21T05:40:31.005Z,97808.34
2023-03-21T05:45:33.874Z,97808.69
2023-03-21T05:50:36.061Z,97802.16
2023-03-21T05:55:45.622Z,97816.44
2023-03-21T06:00:58.794Z,97809.72
2023-03-21T06:06:07.760Z,97810.91
2023-03-21T06:11:27.398Z,97821.91
2023-03-21T06:16:54.998Z,97822.88
2023-03-21T06:21:57.182Z,97820.72
2023-03-21T06:26:59.402Z,97822.13
2023-03-21T06:32:07.628Z,97825.72
2023-03-21T06:37:09.704Z,97827.72
2023-03-21T06:42:13.016Z,97829.88
2023-03-21T06:47:15.748Z,97828.16
2023-03-21T06:52:19.493Z,97829.66
2023-03-21T06:57:22.002Z,97839.44
2023-03-21T07:02:24.920Z,97828.00
2023-03-21T07:07:49.878Z,97840.69
2023-03-21T07:12:51.484Z,97830.59
2023-03-21T07:17:59.343Z,97831.09
2023-03-21T07:23:01.751Z,97825.84
2023-03-21T07:28:03.456Z,97830.03
2023-03-21T07:33:05.928Z,97832.50
2023-03-21T07:38:07.974Z,97825.22
2023-03-21T07:43:09.672Z,97822.59
2023-03-21T07:48:17.988Z,97832.28
2023-03-21T07:53:20.120Z,97832.22
2023-03-21T07:58:22.422Z,97830.47
2023-03-21T08:03:26.257Z,97831.47
2023-03-21T08:08:27.980Z,97840.81
2023-03-21T08:13:29.649Z,97836.16
2023-03-21T08:18:31.299Z,97840.97
2023-03-21T08:23:33.025Z,97841.06
2023-03-21T08:28:34.945Z,97847.28
2023-03-21T08:33:37.214Z,97847.75
2023-03-21T08:38:39.509Z,97828.97
2023-03-21T08:43:41.152Z,97841.09
2023-03-21T08:48:43.105Z,97846.78
2023-03-21T08:53:44.732Z,97832.31
2023-03-21T08:58:47.382Z,97829.66
2023-03-21T09:03:49.046Z,97833.16
2023-03-21T09:08:53.475Z,97827.75
2023-03-21T09:13:55.150Z,97831.50
2023-03-21T09:18:59.061Z,97824.66
2023-03-21T09:24:00.928Z,97826.56
2023-03-21T09:29:04.921Z,97820.19
2023-03-21T09:34:06.958Z,97801.56
2023-03-21T09:39:08.676Z,97800.53
2023-03-21T09:44:10.683Z,97800.19
2023-03-21T09:49:35.334Z,97808.34
2023-03-21T09:54:43.028Z,97793.56
2023-03-21T09:59:44.944Z,97793.44
2023-03-21T10:04:47.031Z,97780.59
2023-03-21T10:09:51.989Z,97785.53
2023-03-21T10:14:58.132Z,97780.38
2023-03-21T10:20:17.379Z,97768.38
2023-03-21T10:25:33.131Z,97764.81
2023-03-21T10:30:42.488Z,97767.22
2023-03-21T10:35:50.515Z,97755.84
2023-03-21T10:40:52.212Z,97755.72
2023-03-21T10:45:57.858Z,97752.13
2023-03-21T10:50:59.601Z,97746.16
2023-03-21T10:56:01.820Z,97747.25
2023-03-21T11:01:08.350Z,97735.97
2023-03-21T11:06:21.864Z,97745.41
2023-03-21T11:11:33.470Z,97743.97
2023-03-21T11:16:44.500Z,97737.78
2023-03-21T11:21:46.639Z,97732.47
2023-03-21T11:26:50.765Z,97730.34
2023-03-21T11:31:52.942Z,97734.41
2023-03-21T11:37:01.258Z,97732.56
2023-03-21T11:42:03.284Z,97730.44
2023-03-21T11:47:04.981Z,97717.03
2023-03-21T11:52:21.663Z,97716.91
2023-03-21T11:57:52.608Z,97712.16
2023-03-21T12:03:00.307Z,97709.78
2023-03-21T12:08:23.289Z,97693.31
2023-03-21T12:13:43.318Z,97693.59
2023-03-21T12:19:03.865Z,97691.50
2023-03-21T12:24:26.666Z,97690.63
2023-03-21T12:29:40.560Z,97674.16
2023-03-21T12:35:02.815Z,97665.00
2023-03-21T12:40:33.863Z,97652.19
2023-03-21T12:45:46.975Z,97658.03
2023-03-21T12:50:53.846Z,97651.38
2023-03-21T12:56:01.561Z,97650.41
2023-03-21T13:01:06.705Z,97639.66
2023-03-21T13:06:13.410Z,97640.44
2023-03-21T13:11:19.499Z,97630.97
2023-03-21T13:16:30.253Z,97615.47
2023-03-21T13:21:34.981Z,97618.03
2023-03-21T13:26:42.014Z,97610.19
2023-03-21T13:31:52.543Z,97606.06
2023-03-21T13:36:56.514Z,97606.72
2023-03-21T13:42:04.632Z,97601.91
2023-03-21T13:47:25.024Z,97592.91
2023-03-21T13:52:28.222Z,97595.06
2023-03-21T13:57:30.524Z,97584.56
2023-03-21T14:02:34.166Z,97582.06
2023-03-21T14:07:41.671Z,97574.97
2023-03-21T14:12:44.466Z,97577.34
2023-03-21T14:18:16.370Z,97555.25
2023-03-21T14:23:28.740Z,97564.78
2023-03-21T14:28:33.187Z,97554.97
2023-03-21T14:33:44.263Z,97552.66
2023-03-21T14:39:02.210Z,97545.88
2023-03-21T14:44:25.472Z,97539.56
2023-03-21T14:49:30.313Z,97526.94
2023-03-21T14:54:32.832Z,97523.91
2023-03-21T14:59:37.985Z,97524.84
2023-03-21T15:04:39.801Z,97530.59
2023-03-21T15:09:54.293Z,97529.13
2023-03-21T15:14:56.336Z,97518.06
2023-03-21T15:19:57.982Z,97510.66
2023-03-21T15:25:04.465Z,97508.91
2023-03-21T15:30:07.503Z,97507.38
2023-03-21T15:35:21.403Z,97496.19
2023-03-21T15:40:31.077Z,97500.56
2023-03-21T15:45:33.200Z,97485.75
2023-03-21T15:51:12.171Z,97486.69
2023-03-21T15:56:16.391Z,97493.41
2023-03-21T16:01:20.326Z,97488.25
2023-03-21T16:06:29.383Z,97489.53
2023-03-21T16:11:51.226Z,97481.53
2023-03-21T16:16:53.045Z,97491.44
2023-03-21T16:21:54.650Z,97488.25
2023-03-21T16:26:56.611Z,97492.09
2023-03-21T16:31:58.250Z,97490.53
2023-03-21T16:36:59.910Z,97489.97
2023-03-21T16:42:01.543Z,97487.81
2023-03-21T16:47:03.224Z,97496.03
2023-03-21T16:52:04.998Z,97502.13
2023-03-21T16:57:09.059Z,97511.56
2023-03-21T17:02:16.914Z,97508.59
2023-03-21T17:07:18.989Z,97513.63
2023-03-21T17:12:20.840Z,97505.63
2023-03-21T17:17:22.480Z,97500.81
2023-03-21T17:22:24.093Z,97499.59
2023-03-21T17:27:25.856Z,97503.38
2023-03-21T17:32:27.517Z,97509.59
2023-03-21T17:37:29.139Z,97507.69
2023-03-21T17:42:30.789Z,97507.13
2023-03-21T17:47:32.834Z,97513.59
2023-03-21T17:52:35.389Z,97513.59
2023-03-21T17:57:37.735Z,97519.19
2023-03-21T18:02:40.362Z,97521.72
2023-03-21T18:08:08.870Z,97515.28
2023-03-21T18:13:05.149Z,97519.28
2023-03-21T18:18:06.929Z,97518.56
2023-03-21T18:23:08.753Z,97520.38
2023-03-21T18:28:12.490Z,97517.28
2023-03-21T18:33:14.820Z,97520.78
2023-03-21T18:38:16.659Z,97520.47
2023-03-21T18:48:40.566Z,97516.59
2023-03-21T18:53:42.685Z,97520.44
2023-03-21T18:58:44.956Z,97526.75
2023-03-21T19:04:11.639Z,97528.97
2023-03-21T19:09:09.893Z,97529.03
2023-03-21T19:14:13.936Z,97529.03
2023-03-21T19:19:18.737Z,97529.38
2023-03-21T19:24:27.762Z,97528.16
2023-03-21T19:29:30.239Z,97526.97
2023-03-21T19:34:32.310Z,97531.22
2023-03-21T19:39:34.222Z,97535.63
2023-03-21T19:44:36.783Z,97530.66
2023-03-21T19:50:20.847Z,97526.84
2023-03-21T19:55:02.676Z,97534.28
2023-03-21T20:00:05.412Z,97533.22
2023-03-21T20:05:07.836Z,97531.44
2023-03-21T20:10:11.048Z,97534.66
2023-03-21T20:15:19.215Z,97534.09
2023-03-21T20:20:23.546Z,97538.69
2023-03-21T20:25:25.609Z,97539.25
2023-03-21T20:30:27.802Z,97530.44
2023-03-21T20:36:16.594Z,97539.44
2023-03-21T20:40:53.044Z,97544.25
2023-03-21T20:46:04.024Z,97542.41
2023-03-21T20:52:14.877Z,97541.44
2023-03-21T20:56:33.126Z,97535.25
2023-03-21T21:01:34.978Z,97536.53
2023-03-21T21:06:36.794Z,97533.13
2023-03-21T21:17:07.734Z,97531.69
2023-03-21T21:22:19.341Z,97534.38
2023-03-21T21:27:21.134Z,97539.69
2023-03-21T21:32:23.019Z,97542.19
2023-03-21T21:37:25.172Z,97543.53
2023-03-21T21:42:27.344Z,97538.44
2023-03-21T21:47:29.337Z,97534.75
2023-03-21T21:52:31.192Z,97539.69
2023-03-21T21:57:34.744Z,97536.72
2023-03-21T22:02:36.922Z,97539.97
2023-03-21T22:07:39.333Z,97548.03
2023-03-21T22:12:41.174Z,97549.91
2023-03-21T22:17:43.235Z,97538.78
2023-03-21T22:22:45.327Z,97528.00
2023-03-21T22:27:47.262Z,97528.25
2023-03-21T22:33:06.224Z,97531.38
2023-03-21T22:38:10.482Z,97535.13
2023-03-21T22:43:12.309Z,97527.78
2023-03-21T22:48:14.364Z,97530.88
2023-03-21T22:53:16.272Z,97520.66
2023-03-21T22:58:18.165Z,97522.34
2023-03-21T23:03:19.980Z,97537.22
2023-03-21T23:08:21.967Z,97522.91
2023-03-21T23:13:23.889Z,97518.00
2023-03-21T23:18:25.722Z,97521.41
2023-03-21T23:23:27.571Z,97523.56
2023-03-21T23:28:29.368Z,97515.84
2023-03-21T23:33:31.961Z,97514.53
2023-03-21T23:38:33.989Z,97511.94
2023-03-21T23:43:36.063Z,97500.50
2023-03-21T23:48:37.840Z,97502.81
2023-03-21T23:53:40.192Z,97504.03
2023-03-21T23:58:42.016Z,97497.63
